createdAt,value
2022-12-04T00:01:29.534Z,96.57
2022-12-04T00:04:01.276Z,98.22
2022-12-04T00:06:30.449Z,82.70
2022-12-04T00:08:58.902Z,145.50
2022-12-04T00:11:30.728Z,96.53
2022-12-04T00:14:04.818Z,130.50
2022-12-04T00:16:36.980Z,141.25
2022-12-04T00:19:05.488Z,144.60
2022-12-04T00:21:36.363Z,88.57
2022-12-04T00:24:05.271Z,122.60
2022-12-04T00:26:33.360Z,139.25
2022-12-04T00:29:01.589Z,76.75
2022-12-04T00:31:31.811Z,67.22
2022-12-04T00:34:02.477Z,70.72
2022-12-04T00:36:31.400Z,76.25
2022-12-04T00:39:01.469Z,94.00
2022-12-04T00:41:32.498Z,115.75
2022-12-04T00:44:01.423Z,89.63
2022-12-04T00:46:29.941Z,78.45
2022-12-04T00:48:59.421Z,84.72
2022-12-04T00:51:29.815Z,78.43
2022-12-04T00:53:57.900Z,74.00
2022-12-04T00:56:28.961Z,87.10
2022-12-04T00:59:01.145Z,85.30
2022-12-04T01:01:31.369Z,80.45
2022-12-04T01:03:59.630Z,126.45
2022-12-04T01:06:32.496Z,81.95
2022-12-04T01:09:03.041Z,95.30
2022-12-04T01:11:32.399Z,90.38
2022-12-04T01:14:01.899Z,76.50
2022-12-04T01:16:33.299Z,108.68
2022-12-04T01:19:01.640Z,68.07
2022-12-04T01:21:31.035Z,61.17
2022-12-04T01:23:59.901Z,69.80
2022-12-04T01:26:28.814Z,112.47
2022-12-04T01:28:56.936Z,72.68
2022-12-04T01:31:25.690Z,79.50
2022-12-04T01:33:54.255Z,97.88
2022-12-04T01:36:30.428Z,130.77
2022-12-04T01:38:59.086Z,108.97
2022-12-04T01:41:30.477Z,72.18
2022-12-04T01:44:16.321Z,108.22
2022-12-04T01:46:46.528Z,125.90
2022-12-04T01:49:20.780Z,103.78
2022-12-04T01:51:55.383Z,115.72
2022-12-04T01:54:29.251Z,83.70
2022-12-04T01:57:04.945Z,178.88
2022-12-04T01:59:40.976Z,216.73
2022-12-04T02:02:15.149Z,84.82
2022-12-04T02:04:44.909Z,146.10
2022-12-04T02:07:14.318Z,127.18
2022-12-04T02:09:43.696Z,152.02
2022-12-04T02:12:23.452Z,84.85
2022-12-04T02:15:08.111Z,111.35
2022-12-04T02:17:46.829Z,99.03
2022-12-04T02:20:26.367Z,100.97
2022-12-04T02:23:34.374Z,114.30
2022-12-04T02:26:20.715Z,84.35
2022-12-04T02:28:57.531Z,81.93
2022-12-04T02:31:34.693Z,147.63
2022-12-04T02:34:08.062Z,131.40
2022-12-04T02:36:45.259Z,76.13
2022-12-04T02:39:23.049Z,85.20
2022-12-04T02:42:00.398Z,88.18
2022-12-04T02:44:38.195Z,112.85
2022-12-04T02:47:12.976Z,97.25
2022-12-04T02:49:47.205Z,107.93
2022-12-04T02:52:21.852Z,167.50
2022-12-04T02:54:57.690Z,85.22
2022-12-04T02:57:32.897Z,74.18
2022-12-04T03:00:08.240Z,122.45
2022-12-04T03:02:43.589Z,83.65
2022-12-04T03:05:18.293Z,75.78
2022-12-04T03:07:53.516Z,86.78
2022-12-04T03:10:29.001Z,77.80
2022-12-04T03:13:04.188Z,139.48
2022-12-04T03:15:42.488Z,104.70
2022-12-04T03:18:17.754Z,92.70
2022-12-04T03:20:51.015Z,88.70
2022-12-04T03:23:29.336Z,115.53
2022-12-04T03:26:05.727Z,104.13
2022-12-04T03:28:49.521Z,91.18
2022-12-04T03:31:27.182Z,143.07
2022-12-04T03:34:03.599Z,84.07
2022-12-04T03:36:38.134Z,92.53
2022-12-04T03:39:16.443Z,100.28
2022-12-04T03:41:58.884Z,110.13
2022-12-04T03:44:37.946Z,90.80
2022-12-04T03:47:13.910Z,95.45
2022-12-04T03:49:47.867Z,90.40
2022-12-04T03:52:27.884Z,105.50
2022-12-04T03:55:02.795Z,91.50
2022-12-04T03:57:44.535Z,115.10
2022-12-04T04:00:15.920Z,93.15
2022-12-04T04:02:53.280Z,106.75
2022-12-04T04:05:25.039Z,106.07
2022-12-04T04:08:20.456Z,105.68
2022-12-04T04:10:50.871Z,100.65
2022-12-04T04:13:44.013Z,116.82
2022-12-04T04:16:35.300Z,103.15
2022-12-04T04:19:22.475Z,129.40
2022-12-04T04:22:11.975Z,112.22
2022-12-04T04:24:46.150Z,104.03
2022-12-04T04:27:15.421Z,95.93
2022-12-04T04:29:50.731Z,111.05
2022-12-04T04:32:35.244Z,122.10
2022-12-04T04:35:18.569Z,102.65
2022-12-04T04:37:59.437Z,122.45
2022-12-04T04:40:37.761Z,189.93
2022-12-04T04:43:14.114Z,175.45
2022-12-04T04:45:48.290Z,124.53
2022-12-04T04:48:24.794Z,122.15
2022-12-04T04:50:56.039Z,116.30
2022-12-04T04:53:31.576Z,105.90
2022-12-04T04:56:00.568Z,96.85
2022-12-04T04:58:28.669Z,114.43
2022-12-04T05:01:04.727Z,120.20
2022-12-04T05:03:33.533Z,118.32
2022-12-04T05:06:03.135Z,101.30
2022-12-04T05:08:31.552Z,107.10
2022-12-04T05:10:59.790Z,97.55
2022-12-04T05:13:29.879Z,128.27
2022-12-04T05:15:58.967Z,106.55
2022-12-04T05:18:27.482Z,100.20
2022-12-04T05:20:56.112Z,110.55
2022-12-04T05:23:26.299Z,119.55
2022-12-04T05:26:01.028Z,87.63
2022-12-04T05:28:29.184Z,103.10
2022-12-04T05:30:58.102Z,103.75
2022-12-04T05:33:26.498Z,119.25
2022-12-04T05:36:00.259Z,121.35
2022-12-04T05:38:29.918Z,105.72
2022-12-04T05:40:59.548Z,115.43
2022-12-04T05:43:28.627Z,92.30
2022-12-04T05:45:56.823Z,118.75
2022-12-04T05:48:24.826Z,112.60
2022-12-04T05:50:53.023Z,94.13
2022-12-04T05:53:21.035Z,117.05
2022-12-04T05:55:57.491Z,104.90
2022-12-04T05:58:25.989Z,101.85
2022-12-04T06:00:54.180Z,105.47
2022-12-04T06:03:23.681Z,108.28
2022-12-04T06:05:51.906Z,105.85
2022-12-04T06:08:19.973Z,120.35
2022-12-04T06:10:48.053Z,101.13
2022-12-04T06:13:17.407Z,111.15
2022-12-04T06:15:45.418Z,98.50
2022-12-04T06:18:13.439Z,108.78
2022-12-04T06:20:41.492Z,105.63
2022-12-04T06:23:09.546Z,95.63
2022-12-04T06:25:37.559Z,115.28
2022-12-04T06:28:05.723Z,105.95
2022-12-04T06:30:37.146Z,111.90
2022-12-04T06:33:05.523Z,105.10
2022-12-04T06:35:33.539Z,105.20
2022-12-04T06:38:01.554Z,134.20
2022-12-04T06:40:29.572Z,98.40
2022-12-04T06:42:57.579Z,106.88
2022-12-04T06:45:25.845Z,99.25
2022-12-04T06:47:55.316Z,107.70
2022-12-04T06:50:23.350Z,98.68
2022-12-04T06:52:52.373Z,96.45
2022-12-04T06:55:20.381Z,101.05
2022-12-04T06:57:48.383Z,105.13
2022-12-04T07:00:17.829Z,113.25
2022-12-04T07:02:45.931Z,106.85
2022-12-04T07:05:15.843Z,127.03
2022-12-04T07:07:43.886Z,99.07
2022-12-04T07:10:13.006Z,111.47
2022-12-04T07:12:41.008Z,99.25
2022-12-04T07:15:10.787Z,101.07
2022-12-04T07:17:38.810Z,107.15
2022-12-04T07:20:08.514Z,93.30
2022-12-04T07:22:37.883Z,96.97
2022-12-04T07:25:07.261Z,90.13
2022-12-04T07:27:35.284Z,103.15
2022-12-04T07:30:14.082Z,109.97
2022-12-04T07:32:43.654Z,95.32
2022-12-04T07:35:11.643Z,100.80
2022-12-04T07:37:40.986Z,117.68
2022-12-04T07:40:10.205Z,106.05
2022-12-04T07:42:38.447Z,78.93
2022-12-04T07:45:07.753Z,107.57
2022-12-04T07:47:37.373Z,115.60
2022-12-04T07:50:06.853Z,80.03
2022-12-04T07:52:37.226Z,119.65
2022-12-04T07:55:08.291Z,80.68
2022-12-04T07:57:36.356Z,100.88
2022-12-04T08:00:05.826Z,131.60
2022-12-04T08:02:40.058Z,145.10
2022-12-04T08:05:08.450Z,124.50
2022-12-04T08:07:36.577Z,122.90
2022-12-04T08:10:07.406Z,126.13
2022-12-04T08:12:35.556Z,115.18
2022-12-04T08:15:05.159Z,85.63
2022-12-04T08:17:33.355Z,99.47
2022-12-04T08:20:01.537Z,106.55
2022-12-04T08:22:29.553Z,96.00
2022-12-04T08:24:57.761Z,84.68
2022-12-04T08:27:27.207Z,97.93
2022-12-04T08:29:55.371Z,99.15
2022-12-04T08:32:23.589Z,97.60
2022-12-04T08:34:55.753Z,101.35
2022-12-04T08:37:24.180Z,84.50
2022-12-04T08:39:52.550Z,123.65
2022-12-04T08:42:20.569Z,135.30
2022-12-04T08:44:53.045Z,141.13
2022-12-04T08:47:21.126Z,92.78
2022-12-04T08:49:49.127Z,88.20
2022-12-04T08:52:17.469Z,95.50
2022-12-04T08:54:45.744Z,99.53
2022-12-04T08:57:13.785Z,122.40
2022-12-04T08:59:42.281Z,107.30
2022-12-04T09:02:12.965Z,105.78
2022-12-04T09:04:41.040Z,90.82
2022-12-04T09:07:09.127Z,119.30
2022-12-04T09:09:37.755Z,81.65
2022-12-04T09:12:05.808Z,84.50
2022-12-04T09:14:33.805Z,80.60
2022-12-04T09:17:01.928Z,88.80
2022-12-04T09:19:32.076Z,80.70
2022-12-04T09:22:00.089Z,98.63
2022-12-04T09:24:28.120Z,105.05
2022-12-04T09:26:56.193Z,74.75
2022-12-04T09:29:26.074Z,78.25
2022-12-04T09:31:54.198Z,94.57
2022-12-04T09:34:22.210Z,97.28
2022-12-04T09:36:51.563Z,116.90
2022-12-04T09:39:19.581Z,131.88
2022-12-04T09:42:09.568Z,99.03
2022-12-04T09:44:45.238Z,79.68
2022-12-04T09:47:22.819Z,87.15
2022-12-04T09:49:56.226Z,98.40
2022-12-04T09:52:42.699Z,149.43
2022-12-04T09:55:18.894Z,88.40
2022-12-04T09:57:50.696Z,96.35
2022-12-04T10:00:22.379Z,102.95
2022-12-04T10:02:56.966Z,104.18
2022-12-04T10:05:43.167Z,88.30
2022-12-04T10:08:23.997Z,97.15
2022-12-04T10:11:09.563Z,103.22
2022-12-04T10:14:04.448Z,136.68
2022-12-04T10:16:49.355Z,98.55
2022-12-04T10:19:31.097Z,113.43
2022-12-04T10:22:12.619Z,127.57
2022-12-04T10:24:49.064Z,92.47
2022-12-04T10:27:26.217Z,105.35
2022-12-04T10:29:59.939Z,131.23
2022-12-04T10:32:32.793Z,150.35
2022-12-04T10:35:20.403Z,100.75
2022-12-04T10:37:52.434Z,101.10
2022-12-04T10:40:26.843Z,120.90
2022-12-04T10:43:03.246Z,109.43
2022-12-04T10:45:32.537Z,89.03
2022-12-04T10:48:01.248Z,84.93
2022-12-04T10:50:29.368Z,76.00
2022-12-04T10:52:58.046Z,104.93
2022-12-04T10:55:34.222Z,79.07
2022-12-04T10:58:03.027Z,88.20
2022-12-04T11:00:33.955Z,83.53
2022-12-04T11:03:09.721Z,93.40
2022-12-04T11:05:46.217Z,78.75
2022-12-04T11:08:25.626Z,81.38
2022-12-04T11:11:02.826Z,74.15
2022-12-04T11:13:31.225Z,102.60
2022-12-04T11:16:00.671Z,80.80
2022-12-04T11:18:32.328Z,78.10
2022-12-04T11:21:05.531Z,102.68
2022-12-04T11:23:42.815Z,109.50
2022-12-04T11:26:14.128Z,90.40
2022-12-04T11:28:55.543Z,86.00
2022-12-04T11:31:25.188Z,90.00
2022-12-04T11:33:57.738Z,93.28
2022-12-04T11:36:31.266Z,97.57
2022-12-04T11:39:15.488Z,186.90
2022-12-04T11:41:45.304Z,98.20
2022-12-04T11:44:27.214Z,89.40
2022-12-04T11:46:58.637Z,106.65
2022-12-04T11:49:27.924Z,113.53
2022-12-04T11:52:14.910Z,79.47
2022-12-04T11:55:00.771Z,75.93
2022-12-04T11:57:43.272Z,92.38
2022-12-04T12:00:16.091Z,86.43
2022-12-04T12:03:01.835Z,67.63
2022-12-04T12:06:18.537Z,80.25
2022-12-04T12:09:04.683Z,83.30
2022-12-04T12:11:38.245Z,99.35
2022-12-04T12:14:21.175Z,119.35
2022-12-04T12:17:05.456Z,94.60
2022-12-04T12:19:58.604Z,77.93
2022-12-04T12:22:45.522Z,103.28
2022-12-04T12:25:21.696Z,136.48
2022-12-04T12:28:20.278Z,110.90
2022-12-04T12:31:13.610Z,99.15
2022-12-04T12:33:50.921Z,155.55
2022-12-04T12:36:25.509Z,147.88
2022-12-04T12:39:00.785Z,128.40
2022-12-04T12:41:37.911Z,88.57
2022-12-04T12:44:15.771Z,72.90
2022-12-04T12:46:51.898Z,90.93
2022-12-04T12:49:29.841Z,99.07
2022-12-04T12:52:06.147Z,129.05
2022-12-04T12:54:45.003Z,119.50
2022-12-04T12:57:20.784Z,77.53
2022-12-04T12:59:57.165Z,111.15
2022-12-04T13:02:31.128Z,88.82
2022-12-04T13:05:06.949Z,72.05
2022-12-04T13:07:48.978Z,79.97
2022-12-04T13:10:22.665Z,79.88
2022-12-04T13:12:57.622Z,72.30
2022-12-04T13:15:35.710Z,81.60
2022-12-04T13:18:09.872Z,88.97
2022-12-04T13:20:49.207Z,81.18
2022-12-04T13:23:41.630Z,71.85
2022-12-04T13:26:22.113Z,62.85
2022-12-04T13:29:02.685Z,62.05
2022-12-04T13:31:43.150Z,64.88
2022-12-04T13:34:53.634Z,67.85
2022-12-04T13:37:45.801Z,87.32
2022-12-04T13:40:34.258Z,58.42
2022-12-04T13:43:21.590Z,63.40
2022-12-04T13:45:53.530Z,88.78
2022-12-04T13:48:36.458Z,91.85
2022-12-04T13:51:27.007Z,67.78
2022-12-04T13:54:25.893Z,70.15
2022-12-04T13:56:56.878Z,65.15
2022-12-04T13:59:37.179Z,87.68
2022-12-04T14:02:28.979Z,69.15
2022-12-04T14:05:02.235Z,72.32
2022-12-04T14:07:35.543Z,82.25
2022-12-04T14:10:07.613Z,83.47
2022-12-04T14:12:40.935Z,73.32
2022-12-04T14:15:22.784Z,81.20
2022-12-04T14:18:02.385Z,71.70
2022-12-04T14:20:33.034Z,81.70
2022-12-04T14:23:38.958Z,71.53
2022-12-04T14:26:21.206Z,55.40
2022-12-04T14:28:49.822Z,58.47
2022-12-04T14:31:33.395Z,65.75
2022-12-04T14:34:14.593Z,62.75
2022-12-04T14:36:46.526Z,63.90
2022-12-04T14:39:26.611Z,66.75
2022-12-04T14:42:07.125Z,70.13
2022-12-04T14:44:35.242Z,68.25
2022-12-04T14:47:21.308Z,72.13
2022-12-04T14:50:17.064Z,72.05
2022-12-04T14:52:52.351Z,92.07
2022-12-04T14:55:33.615Z,73.63
2022-12-04T14:58:26.031Z,82.45
2022-12-04T15:00:56.076Z,69.30
2022-12-04T15:03:27.816Z,80.38
2022-12-04T15:06:06.593Z,67.78
2022-12-04T15:08:35.557Z,80.68
2022-12-04T15:11:25.369Z,91.53
2022-12-04T15:13:53.577Z,73.47
2022-12-04T15:16:23.394Z,111.47
2022-12-04T15:18:56.015Z,83.88
2022-12-04T15:21:29.321Z,78.30
2022-12-04T15:23:57.364Z,93.85
2022-12-04T15:26:28.204Z,69.78
2022-12-04T15:29:00.984Z,79.15
2022-12-04T15:31:33.088Z,67.93
2022-12-04T15:34:05.111Z,71.95
2022-12-04T15:36:45.277Z,63.67
2022-12-04T15:39:19.810Z,61.20
2022-12-04T15:41:49.854Z,61.83
2022-12-04T15:44:29.749Z,88.57
2022-12-04T15:47:02.196Z,69.60
2022-12-04T15:49:34.355Z,68.97
2022-12-04T15:52:08.900Z,60.05
2022-12-04T15:54:38.463Z,67.88
2022-12-04T15:57:19.194Z,79.25
2022-12-04T15:59:52.228Z,103.32
2022-12-04T16:02:31.897Z,75.57
2022-12-04T16:05:10.986Z,65.45
2022-12-04T16:07:51.108Z,113.32
2022-12-04T16:10:24.806Z,83.50
2022-12-04T16:12:57.701Z,70.80
2022-12-04T16:15:32.707Z,66.68
2022-12-04T16:18:00.789Z,72.85
2022-12-04T16:20:28.993Z,76.70
2022-12-04T16:22:57.037Z,73.53
2022-12-04T16:25:25.081Z,70.80
2022-12-04T16:27:54.697Z,67.55
2022-12-04T16:30:22.783Z,57.78
2022-12-04T16:32:50.823Z,53.92
2022-12-04T16:35:19.047Z,64.68
2022-12-04T16:37:47.186Z,50.28
2022-12-04T16:40:16.719Z,52.00
2022-12-04T16:42:45.169Z,51.40
2022-12-04T16:45:27.303Z,45.42
2022-12-04T16:47:56.142Z,46.67
2022-12-04T16:50:25.600Z,54.40
2022-12-04T16:52:54.540Z,50.38
2022-12-04T16:55:29.347Z,51.05
2022-12-04T16:57:57.384Z,56.15
2022-12-04T17:00:27.046Z,45.70
2022-12-04T17:02:55.378Z,52.03
2022-12-04T17:05:27.699Z,53.15
2022-12-04T17:07:59.067Z,49.58
2022-12-04T17:10:27.309Z,49.10
2022-12-04T17:12:56.020Z,46.13
2022-12-04T17:15:24.315Z,44.40
2022-12-04T17:17:53.747Z,49.42
2022-12-04T17:20:22.531Z,44.33
2022-12-04T17:22:50.835Z,45.60
2022-12-04T17:25:19.535Z,44.45
2022-12-04T17:27:47.656Z,41.35
2022-12-04T17:30:16.452Z,43.58
2022-12-04T17:32:44.746Z,49.53
2022-12-04T17:35:14.432Z,44.42
2022-12-04T17:37:42.671Z,49.75
2022-12-04T17:40:12.989Z,45.90
2022-12-04T17:42:41.837Z,44.42
2022-12-04T17:45:12.048Z,42.78
2022-12-04T17:47:40.104Z,38.80
2022-12-04T17:50:09.643Z,38.67
2022-12-04T17:52:39.041Z,41.35
2022-12-04T17:55:09.007Z,43.08
2022-12-04T17:57:37.147Z,43.08
2022-12-04T18:00:07.035Z,44.42
2022-12-04T18:02:41.470Z,39.90
2022-12-04T18:05:10.308Z,41.17
2022-12-04T18:07:39.753Z,48.75
2022-12-04T18:10:08.833Z,43.67
2022-12-04T18:12:36.894Z,47.50
2022-12-04T18:15:06.383Z,41.58
2022-12-04T18:17:34.475Z,43.78
2022-12-04T18:20:05.075Z,45.65
2022-12-04T18:22:33.748Z,42.15
2022-12-04T18:25:03.362Z,45.03
2022-12-04T18:27:31.548Z,43.05
2022-12-04T18:30:01.484Z,38.97
2022-12-04T18:32:29.548Z,40.05
2022-12-04T18:34:57.567Z,44.53
2022-12-04T18:37:25.610Z,49.92
2022-12-04T18:39:53.854Z,38.75
2022-12-04T18:42:23.365Z,46.42
2022-12-04T18:44:51.519Z,44.90
2022-12-04T18:47:19.665Z,41.00
2022-12-04T18:49:48.035Z,40.95
2022-12-04T18:52:16.192Z,41.20
2022-12-04T18:54:44.389Z,38.67
2022-12-04T18:57:12.422Z,49.25
2022-12-04T18:59:41.926Z,40.40
2022-12-04T19:02:11.504Z,42.53
2022-12-04T19:04:39.545Z,34.25
2022-12-04T19:07:07.601Z,41.13
2022-12-04T19:10:09.487Z,44.47
2022-12-04T19:12:23.693Z,42.80
2022-12-04T19:14:53.371Z,35.95
2022-12-04T19:17:22.443Z,38.72
2022-12-04T19:19:50.631Z,38.30
2022-12-04T19:22:19.112Z,38.50
2022-12-04T19:24:48.356Z,40.95
2022-12-04T19:27:16.441Z,36.28
2022-12-04T19:29:44.710Z,36.35
2022-12-04T19:32:15.499Z,36.90
2022-12-04T19:34:43.851Z,38.88
2022-12-04T19:37:12.620Z,33.72
2022-12-04T19:39:40.765Z,38.35
2022-12-04T19:42:09.262Z,44.33
2022-12-04T19:44:48.513Z,47.28
2022-12-04T19:47:19.321Z,34.08
2022-12-04T19:49:47.511Z,38.00
2022-12-04T19:52:15.861Z,32.58
2022-12-04T19:54:44.043Z,34.15
2022-12-04T19:57:12.828Z,35.92
2022-12-04T19:59:45.979Z,36.10
2022-12-04T20:02:14.810Z,39.03
2022-12-04T20:04:44.650Z,36.17
2022-12-04T20:07:12.954Z,33.58
2022-12-04T20:09:41.172Z,36.70
2022-12-04T20:12:09.600Z,35.33
2022-12-04T20:14:37.634Z,36.15
2022-12-04T20:17:05.838Z,39.05
2022-12-04T20:19:34.022Z,35.67
2022-12-04T20:22:03.454Z,37.53
2022-12-04T20:24:31.511Z,34.47
2022-12-04T20:26:59.687Z,36.47
2022-12-04T20:29:27.713Z,37.40
2022-12-04T20:31:55.737Z,37.83
2022-12-04T20:34:23.837Z,34.90
2022-12-04T20:36:51.910Z,36.05
2022-12-04T20:39:21.921Z,38.95
2022-12-04T20:41:50.218Z,33.10
2022-12-04T20:44:20.464Z,40.75
2022-12-04T20:46:49.707Z,35.38
2022-12-04T20:49:22.565Z,32.87
2022-12-04T20:51:52.718Z,32.42
2022-12-04T20:54:23.815Z,35.65
2022-12-04T20:56:53.529Z,35.67
2022-12-04T20:59:24.740Z,30.05
2022-12-04T21:01:53.437Z,33.85
2022-12-04T21:04:22.682Z,37.63
2022-12-04T21:06:50.963Z,30.83
2022-12-04T21:09:23.920Z,31.45
2022-12-04T21:11:54.120Z,33.35
2022-12-04T21:14:42.630Z,35.40
2022-12-04T21:17:16.617Z,34.05
2022-12-04T21:19:45.432Z,38.95
2022-12-04T21:22:13.865Z,32.47
2022-12-04T21:24:43.231Z,35.45
2022-12-04T21:27:17.153Z,31.92
2022-12-04T21:29:49.358Z,36.80
2022-12-04T21:32:18.401Z,33.38
2022-12-04T21:34:46.491Z,32.60
2022-12-04T21:37:14.704Z,37.30
2022-12-04T21:39:44.747Z,31.42
2022-12-04T21:42:31.061Z,38.08
2022-12-04T21:45:00.673Z,36.67
2022-12-04T21:47:29.121Z,26.98
2022-12-04T21:49:57.558Z,28.75
2022-12-04T21:52:26.631Z,29.33
2022-12-04T21:54:56.304Z,37.00
2022-12-04T21:57:24.774Z,32.28
2022-12-04T21:59:53.580Z,30.33
2022-12-04T22:02:21.766Z,28.50
2022-12-04T22:04:50.122Z,31.25
2022-12-04T22:07:18.239Z,33.58
2022-12-04T22:09:46.276Z,34.97
2022-12-04T22:12:41.235Z,30.40
2022-12-04T22:15:03.673Z,26.73
2022-12-04T22:17:31.701Z,26.92
2022-12-04T22:19:59.890Z,29.48
2022-12-04T22:22:28.092Z,28.95
2022-12-04T22:24:56.100Z,32.80
2022-12-04T22:27:25.922Z,25.35
2022-12-04T22:29:54.225Z,28.83
2022-12-04T22:32:22.766Z,24.77
2022-12-04T22:34:50.943Z,28.58
2022-12-04T22:37:19.121Z,27.70
2022-12-04T22:39:47.152Z,27.55
2022-12-04T22:42:15.203Z,29.88
2022-12-04T22:44:44.770Z,29.73
2022-12-04T22:47:12.798Z,25.70
2022-12-04T22:49:40.838Z,27.25
2022-12-04T22:52:08.867Z,28.20
2022-12-04T22:54:36.907Z,26.33
2022-12-04T22:57:05.277Z,24.23
2022-12-04T22:59:33.617Z,22.10
2022-12-04T23:02:03.023Z,28.83
2022-12-04T23:04:31.169Z,25.88
2022-12-04T23:06:59.259Z,27.38
2022-12-04T23:09:27.863Z,22.45
2022-12-04T23:11:57.336Z,21.52
2022-12-04T23:14:27.011Z,20.92
2022-12-04T23:16:55.596Z,28.17
2022-12-04T23:19:25.060Z,22.48
2022-12-04T23:21:57.021Z,22.85
2022-12-04T23:24:26.265Z,21.58
2022-12-04T23:26:54.341Z,23.10
2022-12-04T23:29:51.560Z,20.17
2022-12-04T23:32:10.390Z,24.45
2022-12-04T23:34:39.940Z,20.13
2022-12-04T23:37:08.040Z,20.20
2022-12-04T23:39:36.378Z,21.15
2022-12-04T23:42:04.653Z,19.85
2022-12-04T23:44:32.684Z,20.75
2022-12-04T23:47:00.809Z,21.95
2022-12-04T23:49:29.139Z,18.33
2022-12-04T23:51:58.517Z,18.63
2022-12-04T23:54:27.248Z,17.15
2022-12-04T23:56:55.868Z,21.33
2022-12-04T23:59:24.041Z,18.70
